Terminal Aerodrome Forecast
Issued by NWS

Home | Current Version | Previous Version | Text Only | Print | Product List | Glossary On
Versions: 1 2 3 4 5 6 7 8 9 10 11 12
000
FTUS43 KEAX 262300
TAFMKC
TAF
KMKC 262327Z 2700/2724 VRB06KT P6SM BKN150
     FM270600 35007KT P6SM SCT150
     FM271400 33012KT P6SM FEW050=

USA.gov is the U.S. government's official web portal to all federal, state and local government web resources and services.